Leesville, Ohio
Current Conditions -  °F | °C
As of 1:53 AM on Thursday 27 Nov 2014 (Local Time) from KPHD Reporting Station
Overcast Overcast  
Wind Chill: 33°   Ceiling: 4200
Heat Index: 33°   Visibility: 10mi
Dew Point: 26°   Wind: 3mph
Humidity: 75%   Direction: 290°WNW
Pressure: 30.02"   Gusts: NA
Location:  40.45°N, 81.21°W
Report Text: KPHD 270653Z AUTO 29003KT 10SM OVC042 01/M03 A3002 RMK AO2 SLP174 T00061033
Loading
Personal Weather Stations






























Interactive Weather Map New forecast layout! Learn more

10-Day Weather Forecast

Advertisements
Track Severe Weather on mobile